Flight Track Log - Related Links

Times and Time Zones

All times are in EDT time to prevent confusion due to time zone crossing. See the THY6 flight status page for this flight to view local times or setup timezone preferences in your user account.


Time Position Orientation Groundspeed Altitude Reporting Facility
EDT Latitude Longitude Course Direction KTS MPH feet Rate Location/Type
Mon 11:32:12 PM 41.9896 -87.9321 321° Northwest 172 198 1,200  Level FlightAware ADS-B (KBHM)
Mon 11:32:32 PM 42.0003 -87.9436 326° Northwest 161 185 2,200 2,400 Climbing FlightAware ADS-B (KBHM)
Mon 11:32:42 PM 42.0090 -87.9466 North 162 186 2,400 1,000 Climbing FlightAware ADS-B (KBHM)
Mon 11:32:50 PM 42.0149 -87.9445 23° Northeast 169 194 2,500 600 Climbing FlightAware ADS-B (KBHM)
Mon 11:33:02 PM 42.0230 -87.9379 34° Northeast 181 208 2,600 563 Climbing FlightAware ADS-B (KBHM)
Mon 11:33:22 PM 42.0372 -87.9236 38° Northeast 202 232 2,800 900 Climbing FlightAware ADS-B (KBHM)
Mon 11:33:42 PM 42.0507 -87.9058 48° Northeast 226 260 3,200 1,350 Climbing FlightAware ADS-B (KBHM)
Mon 11:34:02 PM 42.0661 -87.8821 49° Northeast 248 285 3,700 2,195 Climbing FlightAware ADS-B (KBHM)
Mon 11:34:23 PM 42.0811 -87.8576 55° Northeast 251 289 4,700 2,710 Climbing FlightAware ADS-B (KBHM)
Mon 11:34:33 PM 42.0863 -87.8430 72° East 260 299 5,100 2,400 Climbing FlightAware ADS-B (KBHM)
Mon 11:34:43 PM 42.0880 -87.8267 89° East 270 311 5,500 2,600 Climbing FlightAware ADS-B (KBHM)
Mon 11:35:03 PM 42.0872 -87.7942 93° East 272 313 6,400 2,850 Climbing FlightAware ADS-B (KBHM)
Mon 11:35:23 PM 42.0861 -87.7588 92° East 270 311 7,400 2,550 Climbing FlightAware ADS-B (KBHM)
Mon 11:35:43 PM 42.0854 -87.7253 91° East 276 318 8,100 2,250 Climbing FlightAware ADS-B (KBHM)
Mon 11:36:03 PM 42.0850 -87.6900 91° East 280 322 8,900 2,700 Climbing FlightAware ADS-B (KBHM)
Mon 11:36:23 PM 42.0849 -87.6556 90° East 279 321 9,900 2,077 Climbing FlightAware ADS-B (KBHM)
Mon 11:36:55 PM 42.0849 -87.5989 90° East 300 345 10,700 1,135 Climbing FlightAware ADS-B (KBHM)
Mon 11:37:37 PM 42.0852 -87.5149 90° East 343 395 11,300 917 Climbing FlightAware ADS-B (KBHM)
Mon 11:38:07 PM 42.0856 -87.4484 90° East 369 425 11,800 1,565 Climbing FlightAware ADS-B (KBHM)
Mon 11:38:46 PM 42.0852 -87.3564 91° East 384 442 13,100 2,057 Climbing FlightAware ADS-B (KBHM)
Mon 11:39:17 PM 42.0848 -87.2843 90° East 390 449 14,200 2,066 Climbing FlightAware ADS-B (KBHM)
Mon 11:39:47 PM 42.0850 -87.2105 86° East 396 456 15,200 2,000 Climbing FlightAware ADS-B (KBHM)
Mon 11:40:17 PM 42.0930 -87.1351 81° East 401 461 16,200 1,900 Climbing FlightAware ADS-B (KBHM)
Mon 11:40:47 PM 42.1009 -87.0599 82° East 408 470 17,100 1,770 Climbing FlightAware ADS-B
Mon 11:41:18 PM 42.1087 -86.9843 82° East 416 479 18,000 1,967 Climbing FlightAware ADS-B (KBHM)
Mon 11:41:48 PM 42.1169 -86.9042 82° East 417 480 19,100 1,770 Climbing FlightAware ADS-B (KBHM)
Mon 11:42:19 PM 42.1252 -86.8234 82° East 428 493 19,800 1,475 Climbing FlightAware ADS-B (KBHM)
Mon 11:42:49 PM 42.1333 -86.7446 82° East 436 502 20,600 1,869 Climbing FlightAware ADS-B (KBHM)
Mon 11:43:20 PM 42.1415 -86.6628 82° East 433 498 21,700 1,662 Climbing FlightAware ADS-B (KBHM)
Mon 11:43:54 PM 42.1497 -86.5824 82° East 437 503 22,400 1,406 Climbing FlightAware ADS-B (KBHM)
Mon 11:44:24 PM 42.1589 -86.4899 82° East 446 513 23,200 1,352 Climbing FlightAware ADS-B (KBHM)
Mon 11:45:05 PM 42.1702 -86.3758 82° East 456 525 24,000 1,183 Climbing FlightAware ADS-B (KBHM)
Mon 11:45:35 PM 42.1783 -86.2928 83° East 460 529 24,600 1,180 Climbing FlightAware ADS-B (KBHM)
Mon 11:46:06 PM 42.1874 -86.1988 83° East 468 539 25,200 1,180 Climbing FlightAware ADS-B (KBHM)
Mon 11:46:36 PM 42.1954 -86.1159 83° East 471 542 25,800 1,292 Climbing FlightAware ADS-B (KBHM)
Mon 11:47:11 PM 42.2054 -86.0118 83° East 472 543 26,600 1,280 Climbing FlightAware ADS-B (KBHM)
Mon 11:47:51 PM 42.2160 -85.8984 83° East 476 548 27,400 987 Climbing FlightAware ADS-B (KBHM)
Mon 11:48:30 PM 42.2273 -85.7775 83° East 484 557 27,900 857 Climbing FlightAware ADS-B (KBHM)
Mon 11:49:01 PM 42.2358 -85.6857 83° East 487 560 28,400 1,355 Climbing FlightAware ADS-B (KBHM)
Mon 11:49:32 PM 42.2443 -85.5925 83° East 481 554 29,300 1,583 Climbing FlightAware ADS-B (KBHM)
Mon 11:50:13 PM 42.2551 -85.4731 83° East 473 544 30,300 1,333 Climbing FlightAware ADS-B (KBHM)
Mon 11:50:44 PM 42.2634 -85.3813 83° East 472 543 30,900 1,082 Climbing FlightAware ADS-B (KBHM)
Mon 11:51:14 PM 42.2709 -85.2966 83° East 473 544 31,400 885 Climbing FlightAware ADS-B (KBHM)
Mon 11:51:45 PM 42.2788 -85.2062 83° East 476 548 31,800 774 Climbing FlightAware ADS-B (KBHM)
Mon 11:52:16 PM 42.2869 -85.1140 83° East 478 550 32,200 774 Climbing FlightAware ADS-B (KBHM)
Mon 11:52:47 PM 42.2949 -85.0213 84° East 476 548 32,600 787 Climbing FlightAware ADS-B (KBHM)
Mon 11:53:17 PM 42.3024 -84.9336 84° East 475 547 33,000 381 Climbing FlightAware ADS-B (KBHM)
Mon 11:53:50 PM 42.3106 -84.8346 84° East 476 548 33,000  Level FlightAware ADS-B (KBHM)
Mon 11:54:20 PM 42.3180 -84.7472 84° East 478 550 33,000  Level FlightAware ADS-B (KBHM)
Mon 11:54:53 PM 42.3262 -84.6492 84° East 477 549 33,000  Level FlightAware ADS-B (KBHM)
Mon 11:55:25 PM 42.3338 -84.5578 84° East 476 548 33,000  Level FlightAware ADS-B (KBHM)
Mon 11:56:06 PM 42.3435 -84.4384 84° East 479 551 33,000  Level FlightAware ADS-B (KBHM)
Mon 11:56:37 PM 42.3514 -84.3415 84° East 480 552 33,000  Level FlightAware ADS-B (KBHM)
Mon 11:57:16 PM 42.3606 -84.2247 84° East 481 554 33,000  Level FlightAware ADS-B (KBHM)
Mon 11:57:48 PM 42.3680 -84.1318 84° East 481 554 33,000  Level FlightAware ADS-B (KBHM)
Mon 11:58:38 PM 42.3792 -83.9856 84° East 486 559 33,000  Level FlightAware ADS-B (KBHM)
Tue 12:00:02 AM 42.3974 -83.7442 84° East 490 564 33,000  Level FlightAware ADS-B
Tue 12:02:37 AM 42.4508 -83.2589 81° East 434 499 33,000  Level FlightAware ADS-B (KASD)
Tue 12:03:32 AM 42.4711 -83.0941 81° East 491 565 33,000  Level FlightAware ADS-B (KASD)
Tue 12:04:12 AM 42.4863 -82.9709 80° East 491 565 33,000  Level FlightAware ADS-B (CYYZ)
Tue 12:04:15 AM 42.4872 -82.9636 81° East 492 566 33,000  Level FlightAware ADS-B (KASD)
Tue 12:04:43 AM 42.4969 -82.8840 80° East 494 568 33,000  Level FlightAware ADS-B (CYYZ)
Tue 12:05:13 AM 42.5085 -82.7880 80° East 498 573 33,000 305 Level FlightAware ADS-B (CYYZ)
Tue 12:05:42 AM 42.5192 -82.6984 80° East 502 578 33,300 588 Climbing FlightAware ADS-B (CYYZ)
Tue 12:06:04 AM 42.5276 -82.6282 81° East 503 579 33,500 581 Climbing FlightAware ADS-B (KASD)
Tue 12:06:13 AM 42.5307 -82.6021 80° East 504 580 33,600 789 Climbing FlightAware ADS-B (CYYZ)
Tue 12:06:42 AM 42.5418 -82.5086 81° East 505 581 34,000 712 Climbing FlightAware ADS-B (CYYZ)
Tue 12:07:12 AM 42.5527 -82.4149 80° East 507 583 34,300 686 Climbing FlightAware ADS-B (CYYZ)
Tue 12:07:17 AM 42.5534 -82.4099 81° East 507 583 34,400 600 Climbing FlightAware ADS-B (KASD)
Tue 12:07:42 AM 42.5637 -82.3207 81° East 509 586 34,600 462 Climbing FlightAware ADS-B (CYYZ)
Tue 12:07:56 AM 42.5687 -82.2779 81° East 511 588 34,700 387 Climbing FlightAware ADS-B (KASD)
Tue 12:08:13 AM 42.5746 -82.2265 81° East 513 590 34,800 387 Climbing FlightAware ADS-B (CYYZ)
Tue 12:08:27 AM 42.5801 -82.1789 81° East 516 594 34,900 353 Climbing FlightAware ADS-B (KASD)
Tue 12:08:47 AM 42.5877 -82.1123 81° East 519 597 35,000 162 Climbing FlightAware ADS-B (CYYZ)
Tue 12:09:04 AM 42.5938 -82.0594 81° East 522 601 35,000  Level FlightAware ADS-B (KASD)
Tue 12:09:18 AM 42.5989 -82.0142 81° East 522 601 35,000  Level FlightAware ADS-B (CYYZ)
Tue 12:09:40 AM 42.5999 -82.0051 81° East 522 601 35,000  Level FlightAware ADS-B (KASD)
Tue 12:09:48 AM 42.6093 -81.9219 81° East 520 598 35,000  Level FlightAware ADS-B (CYYZ)
Tue 12:10:17 AM 42.6202 -81.8246 81° East 520 598 35,000  Level FlightAware ADS-B (CYYZ)
Tue 12:10:48 AM 42.6311 -81.7267 81° East 518 596 35,000  Level FlightAware ADS-B (CYYZ)
Tue 12:11:09 AM 42.6385 -81.6598 82° East 520 598 35,000  Level FlightAware ADS-B
Tue 12:11:17 AM 42.6417 -81.6309 81° East 519 597 35,000  Level FlightAware ADS-B (CYYZ)
Tue 12:11:48 AM 42.6521 -81.5343 81° East 519 597 35,000  Level FlightAware ADS-B (CYYZ)
Tue 12:11:54 AM 42.6514 -81.5407 82° East 521 600 35,000  Level FlightAware ADS-B (KASD)
Tue 12:12:17 AM 42.6627 -81.4376 81° East 520 598 35,000  Level FlightAware ADS-B (CYYZ)
Tue 12:12:47 AM 42.6732 -81.3387 81° East 521 600 35,000  Level FlightAware ADS-B (CYYZ)
Tue 12:13:08 AM 42.6801 -81.2746 82° East 522 601 35,000  Level FlightAware ADS-B
Tue 12:13:17 AM 42.6835 -81.2428 81° East 522 601 35,000  Level FlightAware ADS-B (CYYZ)
Tue 12:13:47 AM 42.6933 -81.1508 81° East 522 601 35,000  Level FlightAware ADS-B (CYYZ)
Tue 12:14:06 AM 42.6999 -81.0879 82° East 523 602 35,000  Level FlightAware ADS-B
Tue 12:14:17 AM 42.7038 -81.0508 81° East 523 602 35,000  Level FlightAware ADS-B (CYYZ)
Tue 12:14:47 AM 42.7142 -80.9499 82° East 525 604 35,000  Level FlightAware ADS-B (CYYZ)
Tue 12:15:17 AM 42.7244 -80.8513 82° East 527 606 35,000  Level FlightAware ADS-B (CYYZ)
Tue 12:15:48 AM 42.7343 -80.7549 82° East 527 606 35,000  Level FlightAware ADS-B (CYYZ)
Tue 12:16:11 AM 42.7420 -80.6788 82° East 529 609 35,000  Level FlightAware ADS-B
Tue 12:16:17 AM 42.7442 -80.6564 82° East 528 608 35,000  Level FlightAware ADS-B (CYYZ)
Tue 12:16:47 AM 42.7544 -80.5559 82° East 527 606 35,000  Level FlightAware ADS-B (CYYZ)
Tue 12:16:57 AM 42.7439 -80.6597 82° East 528 608 35,000  Level FlightAware ADS-B (KASD)
Tue 12:17:17 AM 42.7642 -80.4568 82° East 526 605 35,000  Level FlightAware ADS-B (CYYZ)
Tue 12:17:47 AM 42.7736 -80.3618 82° East 526 605 35,000  Level FlightAware ADS-B (CYYZ)
Tue 12:18:07 AM 42.7800 -80.2963 83° East 527 606 35,000  Level FlightAware ADS-B (KASD)
Tue 12:18:18 AM 42.7833 -80.2622 82° East 526 605 35,000  Level FlightAware ADS-B (CYYZ)
Tue 12:18:48 AM 42.7928 -80.1645 82° East 526 605 35,000  Level FlightAware ADS-B (CYYZ)
Tue 12:18:50 AM 42.7934 -80.1586 83° East 526 605 35,000  Level FlightAware ADS-B (KASD)
Tue 12:19:17 AM 42.8024 -80.0642 82° East 526 605 35,000  Level FlightAware ADS-B (CYYZ)
Tue 12:19:25 AM 42.8044 -80.0438 83° East 526 605 35,000  Level FlightAware ADS-B (KASD)
Tue 12:19:48 AM 42.8116 -79.9678 82° East 526 605 35,000  Level FlightAware ADS-B (CYYZ)
Tue 12:20:04 AM 42.8167 -79.9140 83° East 526 605 35,000  Level FlightAware ADS-B (KASD)
Tue 12:20:18 AM 42.8209 -79.8695 82° East 526 605 35,000  Level FlightAware ADS-B (CYYZ)
Tue 12:20:47 AM 42.8301 -79.7706 82° East 525 604 35,000  Level FlightAware ADS-B (CYYZ)
Tue 12:21:05 AM 42.8353 -79.7144 83° East 525 604 35,000  Level FlightAware ADS-B (KASD)
Tue 12:21:17 AM 42.8393 -79.6712 82° East 525 604 35,000  Level FlightAware ADS-B (CYYZ)
Tue 12:21:43 AM 42.8469 -79.5880 83° East 526 605 35,000  Level FlightAware ADS-B
Tue 12:21:47 AM 42.8479 -79.5762 82° East 526 605 35,000  Level FlightAware ADS-B (CYYZ)
Tue 12:22:17 AM 42.8568 -79.4784 83° East 527 606 35,000  Level FlightAware ADS-B (KASD)
Tue 12:22:47 AM 42.8657 -79.3790 83° East 527 606 35,000  Level FlightAware ADS-B (CYYZ)
Tue 12:23:09 AM 42.8722 -79.3064 83° East 530 610 35,000  Level FlightAware ADS-B (KASD)
Tue 12:23:18 AM 42.8748 -79.2767 83° East 529 609 35,000  Level FlightAware ADS-B (CYYZ)
Tue 12:23:48 AM 42.8834 -79.1794 83° East 530 610 35,000  Level FlightAware ADS-B (CYYZ)
Tue 12:24:17 AM 42.8922 -79.0791 83° East 532 612 35,000  Level FlightAware ADS-B (CYYZ)
Tue 12:24:20 AM 42.8930 -79.0698 83° East 533 613 35,000  Level FlightAware ADS-B (KASD)
Tue 12:24:47 AM 42.9008 -78.9792 83° East 532 612 35,000  Level FlightAware ADS-B (CYYZ)
Tue 12:25:00 AM 42.9042 -78.9387 83° East 533 613 35,000  Level FlightAware ADS-B (KASD)
Tue 12:25:17 AM 42.9094 -78.8774 83° East 532 612 35,000  Level FlightAware ADS-B (CYYZ)
Tue 12:25:33 AM 42.9141 -78.8283 82° East 535 616 35,000  Level FlightAware ADS-B (KASD)
Tue 12:25:58 AM 42.9255 -78.7467 77° East 538 619 35,000  Level FlightAware ADS-B (CYYZ)
Tue 12:26:12 AM 42.9342 -78.7000 75° East 540 621 35,000  Level FlightAware ADS-B (KASD)
Tue 12:26:32 AM 42.9496 -78.6312 71° East 540 621 35,000  Level FlightAware ADS-B (CYYZ)
Tue 12:26:45 AM 42.9586 -78.5965 70° East 541 623 35,000  Level FlightAware ADS-B (KASD)
Tue 12:27:07 AM 42.9812 -78.5222 65° Northeast 542 624 35,000  Level FlightAware ADS-B (CYYZ)
Tue 12:27:23 AM 42.9869 -78.5054 63° Northeast 542 624 35,000  Level FlightAware ADS-B (KASD)
Tue 12:27:57 AM 43.0405 -78.3713 59° Northeast 540 621 35,000  Level FlightAware ADS-B (CYYZ)
Tue 12:28:28 AM 43.0784 -78.2816 60° Northeast 540 621 35,000  Level FlightAware ADS-B (CYYZ)
Tue 12:28:38 AM 43.0895 -78.2549 60° Northeast 540 621 35,000  Level FlightAware ADS-B (KASD)
Tue 12:28:57 AM 43.1152 -78.1926 60° Northeast 539 620 35,000  Level FlightAware ADS-B (CYYZ)
Tue 12:29:09 AM 43.1286 -78.1598 61° Northeast 541 623 35,000  Level FlightAware ADS-B (KASD)
Tue 12:29:28 AM 43.1481 -78.1121 60° Northeast 540 621 35,000  Level FlightAware ADS-B (CYYZ)
Tue 12:29:49 AM 43.1770 -78.0411 61° Northeast 540 621 35,000  Level FlightAware ADS-B (KASD)
Tue 12:29:58 AM 43.1874 -78.0155 60° Northeast 539 620 35,000  Level FlightAware ADS-B (CYYZ)
Tue 12:30:27 AM 43.2243 -77.9242 61° Northeast 539 620 35,000  Level FlightAware ADS-B (CYYZ)
Tue 12:30:57 AM 43.2598 -77.8364 61° Northeast 540 621 35,000  Level FlightAware ADS-B (CYYZ)
Tue 12:31:05 AM 43.2545 -77.8495 61° Northeast 540 621 35,000  Level FlightAware ADS-B (KASD)
Tue 12:31:27 AM 43.2961 -77.7461 61° Northeast 539 620 35,000  Level FlightAware ADS-B (CYYZ)
Tue 12:31:58 AM 43.3323 -77.6560 61° Northeast 541 623 35,000  Level FlightAware ADS-B (CYYZ)
Tue 12:32:23 AM 43.3620 -77.5810 61° Northeast 542 624 35,000  Level FlightAware ADS-B
Tue 12:32:27 AM 43.3683 -77.5658 61° Northeast 540 621 35,000  Level FlightAware ADS-B (CYYZ)
Tue 12:32:53 AM 43.3990 -77.4880 61° Northeast 541 623 35,000  Level FlightAware ADS-B
Tue 12:32:57 AM 43.4042 -77.4756 61° Northeast 540 621 35,000  Level FlightAware ADS-B (CYYZ)
Tue 12:33:27 AM 43.4394 -77.3872 61° Northeast 541 623 35,000  Level FlightAware ADS-B (CYYZ)
Tue 12:33:29 AM 43.4420 -77.3810 61° Northeast 542 624 35,000  Level FlightAware ADS-B
Tue 12:33:57 AM 43.4760 -77.2949 61° Northeast 540 621 35,000  Level FlightAware ADS-B (CYYZ)
Tue 12:33:58 AM 43.1914 -78.0053 62° Northeast 541 623 35,000  Level FlightAware ADS-B
Tue 12:34:06 AM 43.4850 -77.2720 61° Northeast 541 623 35,000  Level FlightAware ADS-B
Tue 12:34:27 AM 43.5121 -77.2032 61° Northeast 540 621 35,000  Level FlightAware ADS-B (CYYZ)
Tue 12:34:41 AM 43.5270 -77.1660 61° Northeast 541 623 35,000  Level FlightAware ADS-B
Tue 12:34:57 AM 43.5478 -77.1126 61° Northeast 540 621 35,000  Level FlightAware ADS-B (CYYZ)
Tue 12:35:12 AM 43.5640 -77.0700 61° Northeast 542 624 35,000  Level FlightAware ADS-B
Tue 12:35:27 AM 43.5812 -77.0272 61° Northeast 541 623 35,000  Level FlightAware ADS-B (CYYZ)
Tue 12:35:42 AM 43.5970 -76.9860 61° Northeast 544 626 35,000  Level FlightAware ADS-B
Tue 12:35:57 AM 43.6181 -76.9330 61° Northeast 542 624 35,000  Level FlightAware ADS-B (CYYZ)
Tue 12:36:17 AM 43.6420 -76.8730 61° Northeast 544 626 35,000  Level FlightAware ADS-B
Tue 12:36:27 AM 43.6532 -76.8430 61° Northeast 543 625 35,000  Level FlightAware ADS-B (CYYZ)
Tue 12:36:47 AM 43.6780 -76.7790 61° Northeast 545 627 35,000  Level FlightAware ADS-B
Tue 12:37:02 AM 43.6934 -76.7346 66° East 541 623 35,000  Level FlightAware ADS-B (CYYZ)
Tue 12:37:17 AM 43.7070 -76.6830 69° East 541 623 35,000  Level FlightAware ADS-B
Tue 12:37:42 AM 43.7295 -76.6022 69° East 542 624 35,000  Level FlightAware ADS-B (CYYZ)
Tue 12:37:47 AM 43.7320 -76.5940 69° East 544 626 35,000  Level FlightAware ADS-B
Tue 12:37:57 AM 43.5938 -76.9950 62° Northeast 542 624 35,000  Level FlightAware ADS-B
Tue 12:38:12 AM 43.7562 -76.5066 69° East 544 626 35,000  Level FlightAware ADS-B (CYYZ)
Tue 12:38:23 AM 43.7660 -76.4730 68° East 545 627 35,000  Level FlightAware ADS-B
Tue 12:38:43 AM 43.7830 -76.4101 69° East 544 626 35,000  Level FlightAware ADS-B (CYYZ)
Tue 12:38:59 AM 43.7970 -76.3610 69° East 547 629 35,000  Level FlightAware ADS-B
Tue 12:39:12 AM 43.8098 -76.3132 69° East 547 629 35,000  Level FlightAware ADS-B (CYYZ)
Tue 12:39:43 AM 43.8371 -76.2136 69° East 548 631 35,000  Level FlightAware ADS-B (CYYZ)
Tue 12:39:45 AM 43.8390 -76.2070 69° East 549 632 35,000  Level FlightAware ADS-B
Tue 12:40:13 AM 43.8636 -76.1170 69° East 551 634 35,000  Level FlightAware ADS-B (CYYZ)
Tue 12:40:14 AM 43.8650 -76.1110 69° East 552 635 35,000  Level FlightAware ADS-B
Tue 12:40:42 AM 43.8909 -76.0165 69° East 553 636 35,000  Level FlightAware ADS-B (CYYZ)
Tue 12:40:45 AM 43.8930 -76.0070 69° East 554 638 35,000  Level FlightAware ADS-B
Tue 12:40:50 AM 43.8974 -75.9927 69° East 554 638 35,000  Level FlightAware ADS-B
Tue 12:41:10 AM 43.9142 -75.9310 69° East 553 636 35,000  Level FlightAware ADS-B (CYYZ)
Tue 12:41:21 AM 43.9270 -75.8860 69° East 557 641 35,000  Level FlightAware ADS-B
Tue 12:41:29 AM 43.9336 -75.8597 69° East 557 641 35,000  Level FlightAware ADS-B
Tue 12:41:51 AM 43.9530 -75.7880 69° East 557 641 35,000  Level FlightAware ADS-B
Tue 12:42:00 AM 43.9609 -75.7590 70° East 557 641 35,000  Level FlightAware ADS-B
Tue 12:42:28 AM 43.9860 -75.6660 69° East 558 642 35,000  Level FlightAware ADS-B
Tue 12:42:30 AM 43.9888 -75.6555 70° East 557 641 35,000  Level FlightAware ADS-B
Tue 12:43:00 AM 44.0152 -75.5564 70° East 558 642 35,000  Level FlightAware ADS-B
Tue 12:43:03 AM 44.0170 -75.5500 69° East 558 642 35,000  Level FlightAware ADS-B
Tue 12:43:30 AM 44.0414 -75.4586 70° East 558 642 35,000  Level FlightAware ADS-B
Tue 12:43:45 AM 44.0550 -75.4060 69° East 559 643 35,000  Level FlightAware ADS-B
Tue 12:44:00 AM 44.0677 -75.3594 70° East 557 641 35,000  Level FlightAware ADS-B
Tue 12:44:21 AM 44.0880 -75.2840 69° East 557 641 35,000  Level FlightAware ADS-B
Tue 12:44:30 AM 44.0957 -75.2537 70° East 555 639 35,000  Level FlightAware ADS-B
Tue 12:44:51 AM 44.1140 -75.1840 69° East 551 634 35,000  Level FlightAware ADS-B
Tue 12:45:10 AM 44.1293 -75.1262 70° East 546 628 35,000  Level FlightAware ADS-B
Tue 12:45:21 AM 44.1400 -75.0850 69° East 545 627 35,000  Level FlightAware ADS-B
Tue 12:45:40 AM 44.1557 -75.0254 70° East 540 621 35,000  Level FlightAware ADS-B
Tue 12:45:51 AM 44.1650 -74.9880 69° East 541 623 35,000  Level FlightAware ADS-B
Tue 12:46:10 AM 44.1822 -74.9243 70° East 539 620 35,000  Level FlightAware ADS-B
Tue 12:46:28 AM 44.1970 -74.8690 70° East 538 619 35,000  Level FlightAware ADS-B
Tue 12:46:51 AM 44.2159 -74.7947 70° East 535 616 35,000  Level FlightAware ADS-B
Tue 12:47:04 AM 44.2270 -74.7530 70° East 534 615 35,000  Level FlightAware ADS-B
Tue 12:47:21 AM 44.2415 -74.6954 70° East 532 612 35,000  Level FlightAware ADS-B
Tue 12:47:33 AM 44.2510 -74.6590 70° East 534 615 35,000  Level FlightAware ADS-B
Tue 12:48:00 AM 44.2726 -74.5747 70° East 533 613 35,000  Level FlightAware ADS-B
Tue 12:48:03 AM 44.2760 -74.5600 70° East 535 616 35,000  Level FlightAware ADS-B
Tue 12:48:31 AM 44.3000 -74.4678 70° East 535 616 35,000  Level FlightAware ADS-B
Tue 12:48:33 AM 44.3010 -74.4620 70° East 537 618 35,000  Level FlightAware ADS-B
Tue 12:49:11 AM 44.3321 -74.3420 71° East 538 619 35,000  Level FlightAware ADS-B
Tue 12:49:16 AM 44.3360 -74.3250 70° East 539 620 35,000  Level FlightAware ADS-B
Tue 12:49:41 AM 44.3576 -74.2412 71° East 540 621 35,000  Level FlightAware ADS-B
Tue 12:49:45 AM 44.3470 -74.2820 70° East 541 623 35,000  Level FlightAware ADS-B
Tue 12:50:21 AM 44.3898 -74.1138 71° East 541 623 35,000  Level FlightAware ADS-B
Tue 12:50:51 AM 44.4155 -74.0110 71° East 549 632 35,000  Level FlightAware ADS-B
Tue 12:50:58 AM 44.4210 -73.9880 70° East 550 633 35,000  Level FlightAware ADS-B
Tue 12:51:27 AM 44.4460 -73.8910 70° East 552 635 35,000  Level FlightAware ADS-B
Tue 12:51:51 AM 44.4645 -73.8147 71° East 553 636 35,000  Level FlightAware ADS-B
Tue 12:52:03 AM 44.4760 -73.7690 70° East 554 638 35,000  Level FlightAware ADS-B
Tue 12:52:27 AM 44.4734 -73.7790 251° West 498 573 35,000  Level FlightAware ADS-B (KBTV)
Tue 12:52:33 AM 44.5010 -73.6650 70° East 555 639 35,000  Level FlightAware ADS-B
Tue 12:52:49 AM 44.4734 -73.7790 360° North 498 573 35,000  Level FlightAware ADS-B (KBTV)
Tue 12:53:09 AM 44.5310 -73.5450 70° East 557 641 35,000  Level FlightAware ADS-B
Tue 12:53:45 AM 44.5610 -73.4240 71° East 559 643 35,000  Level FlightAware ADS-B
Tue 12:54:02 AM 44.5751 -73.3654 71° East 558 642 35,000  Level FlightAware ADS-B (KBTV)
Tue 12:54:22 AM 44.5900 -73.3030 71° East 558 642 35,000  Level FlightAware ADS-B
Tue 12:54:36 AM 44.6034 -73.2485 71° East 558 642 35,000  Level FlightAware ADS-B (KBTV)
Tue 12:54:51 AM 44.6160 -73.1970 71° East 558 642 35,000  Level FlightAware ADS-B
Tue 12:55:22 AM 44.6400 -73.0950 71° East 556 640 35,000  Level FlightAware ADS-B
Tue 12:55:25 AM 44.6441 -73.0801 71° East 554 638 35,000  Level FlightAware ADS-B (KBTV)
Tue 12:55:56 AM 44.6690 -72.9760 71° East 554 638 35,000  Level FlightAware ADS-B
Tue 12:56:04 AM 44.6748 -72.9523 72° East 553 636 35,000  Level FlightAware ADS-B (KBTV)
Tue 12:56:26 AM 44.6940 -72.8720 71° East 554 638 35,000  Level FlightAware ADS-B
Tue 12:56:57 AM 44.7190 -72.7680 71° East 553 636 35,000  Level FlightAware ADS-B
Tue 12:57:08 AM 44.7237 -72.7463 72° East 551 634 35,000  Level FlightAware ADS-B (KBTV)
Tue 12:57:27 AM 44.7430 -72.6660 71° East 552 635 35,000  Level FlightAware ADS-B
Tue 12:57:43 AM 44.7553 -72.6127 72° East 551 634 35,000  Level FlightAware ADS-B (KBTV)
Tue 12:57:58 AM 44.7670 -72.5650 71° East 550 633 35,000  Level FlightAware ADS-B
Tue 12:58:27 AM 44.7910 -72.4620 71° East 551 634 35,000  Level FlightAware ADS-B
Tue 12:58:55 AM 44.8130 -72.3690 71° East 551 634 35,000  Level FlightAware ADS-B
Tue 12:59:09 AM 44.8228 -72.3245 72° East 549 632 35,000  Level FlightAware ADS-B (KBTV)
Tue 12:59:33 AM 44.8420 -72.2400 71° East 551 634 35,000  Level FlightAware ADS-B
Tue 12:59:50 AM 44.8269 -72.3068 72° East 551 634 35,000  Level FlightAware ADS-B (KBTV)
Tue 01:00:10 AM 44.8710 -72.1160 71° East 553 636 35,000  Level FlightAware ADS-B
Tue 01:00:45 AM 44.8980 -71.9990 72° East 554 638 35,000  Level FlightAware ADS-B
Tue 01:00:51 AM 44.9033 -71.9749 72° East 551 634 35,000  Level FlightAware ADS-B (NHT / EGWU)
Tue 01:01:10 AM 44.9190 -71.9070 72° East 555 639 35,000  Level FlightAware ADS-B
Tue 01:01:32 AM 44.9346 -71.8373 72° East 558 642 35,000  Level FlightAware ADS-B (NHT / EGWU)
Tue 01:01:53 AM 44.9520 -71.7610 72° East 561 646 35,000  Level FlightAware ADS-B
Tue 01:02:02 AM 44.9586 -71.7317 72° East 562 647 35,000  Level FlightAware ADS-B (NHT / EGWU)
Tue 01:02:27 AM 44.9790 -71.6430 72° East 563 648 35,000  Level FlightAware ADS-B
Tue 01:02:33 AM 44.9829 -71.6235 72° East 562 647 35,000  Level FlightAware ADS-B (NHT / EGWU)
Tue 01:03:09 AM 45.0100 -71.5040 72° East 562 647 35,000  Level FlightAware ADS-B
Tue 01:03:40 AM 45.0330 -71.3996 73° East 562 647 35,000  Level FlightAware ADS-B
Tue 01:03:55 AM 45.0470 -71.3350 72° East 562 647 35,000  Level FlightAware ADS-B
Tue 01:04:19 AM 45.0664 -71.2493 73° East 563 648 35,000  Level FlightAware ADS-B
Tue 01:04:54 AM 45.0939 -71.1247 73° East 562 647 35,000  Level FlightAware ADS-B
Tue 01:05:25 AM 45.1171 -71.0189 73° East 562 647 35,000  Level FlightAware ADS-B
Tue 01:06:00 AM 45.1432 -70.8991 73° East 562 647 35,000  Level FlightAware ADS-B
Tue 01:06:38 AM 45.1734 -70.7595 73° East 562 647 35,000  Level FlightAware ADS-B
Tue 01:07:11 AM 45.1978 -70.6461 73° East 564 649 35,000  Level FlightAware ADS-B
Tue 01:07:41 AM 45.2202 -70.5414 73° East 565 650 35,000  Level FlightAware ADS-B
Tue 01:08:11 AM 45.2436 -70.4318 73° East 565 650 35,000  Level FlightAware ADS-B
Tue 01:08:48 AM 45.2709 -70.3029 73° East 565 650 35,000  Level FlightAware ADS-B
Tue 01:09:19 AM 45.2942 -70.1925 73° East 564 649 35,000  Level FlightAware ADS-B
Tue 01:09:53 AM 45.3191 -70.0735 74° East 563 648 35,000  Level FlightAware ADS-B
Tue 01:10:24 AM 45.3415 -69.9659 74° East 563 648 35,000  Level FlightAware ADS-B
Tue 01:11:00 AM 45.3683 -69.8363 74° East 563 648 35,000  Level FlightAware ADS-B
Tue 01:11:31 AM 45.3889 -69.7364 74° East 564 649 35,000  Level FlightAware ADS-B (EGCB)
Tue 01:12:02 AM 45.4132 -69.6178 74° East 563 648 35,000  Level FlightAware ADS-B (EGCB)
Tue 01:12:43 AM 45.4424 -69.4742 74° East 563 648 35,000  Level FlightAware ADS-B (EGCB)
Tue 01:13:15 AM 45.4677 -69.3492 74° East 563 648 35,000  Level FlightAware ADS-B
Tue 01:13:52 AM 45.4922 -69.2269 74° East 563 648 35,000  Level FlightAware ADS-B
Tue 01:14:29 AM 45.5191 -69.0924 74° East 563 648 35,000  Level FlightAware ADS-B
Tue 01:15:06 AM 45.5409 -68.9819 74° East 563 648 35,000  Level FlightAware ADS-B
Tue 01:15:43 AM 45.5708 -68.8301 74° East 563 648 35,000  Level FlightAware ADS-B (EGCB)
Tue 01:16:16 AM 45.5936 -68.7132 75° East 560 644 35,000  Level FlightAware ADS-B
Tue 01:16:46 AM 45.6157 -68.5993 75° East 556 640 35,000  Level FlightAware ADS-B
Tue 01:17:16 AM 45.6326 -68.5119 75° East 553 636 35,000  Level FlightAware ADS-B
Tue 01:17:52 AM 45.6595 -68.3722 75° East 546 628 35,000  Level FlightAware ADS-B
Tue 01:18:22 AM 45.6790 -68.2701 75° East 547 629 35,000  Level FlightAware ADS-B (EGCB)
Tue 01:19:04 AM 45.7068 -68.1239 75° East 547 629 35,000  Level FlightAware ADS-B (EGCB)
Tue 01:19:54 AM 45.7386 -67.9548 75° East 550 633 35,000  Level FlightAware ADS-B
Tue 01:20:33 AM 45.7638 -67.8200 75° East 550 633 35,000  Level FlightAware ADS-B
Tue 01:21:09 AM 45.7884 -67.6872 75° East 550 633 35,000  Level FlightAware ADS-B
Tue 01:21:50 AM 45.8154 -67.5403 75° East 550 633 35,000  Level FlightAware ADS-B
Tue 01:22:31 AM 45.8291 -67.4651 75° East 549 632 35,000  Level FlightAware ADS-B
Tue 01:24:09 AM 45.8154 -67.5403 76° East 549 632 35,000  Level FlightAware ADS-B
Tue 01:26:56 AM 46.0026 -66.4875 76° East 551 634 35,000  Level FlightAware ADS-B
Tue 01:27:47 AM 46.0348 -66.3004 76° East 550 633 35,000  Level FlightAware ADS-B
Tue 01:32:16 AM 46.1971 -65.3233 77° East 552 635 35,000  Level FlightAware ADS-B
Tue 01:32:47 AM 46.2000 -65.2167 77° East 550 633 35,000  Level Gander Center
Tue 01:33:47 AM 46.2333 -65.0000 77° East 550 633 35,000  Level Gander Center
Tue 01:34:47 AM 46.2667 -64.7833 77° East 550 633 35,000  Level Gander Center
Tue 01:35:47 AM 46.3000 -64.5667 77° East 550 633 35,000  Level Gander Center
Tue 01:36:47 AM 46.3333 -64.3500 77° East 550 633 35,000  Level Gander Center
Tue 01:37:47 AM 46.3500 -64.1333 84° East 540 621 35,000  Level Gander Center
Tue 01:38:47 AM 46.4000 -63.9500 68° East 540 621 35,000  Level Gander Center
Tue 01:39:47 AM 46.4333 -63.7000 79° East 550 633 35,000  Level Gander Center
Tue 01:40:47 AM 46.4500 -63.5167 82° East 550 633 35,000  Level Gander Center
Tue 01:41:47 AM 46.5000 -63.2667 74° East 550 633 35,000  Level Gander Center
Tue 01:42:47 AM 46.5167 -63.0833 82° East 540 621 35,000  Level Gander Center
Tue 01:43:47 AM 46.5500 -62.8333 79° East 540 621 35,000  Level Gander Center
Tue 01:50:02 AM 46.7417 -61.5203 79° East 547 629 35,000  Level FlightAware ADS-B (CYQY)
Tue 01:50:29 AM 46.7549 -61.4137 79° East 548 631 35,000  Level FlightAware ADS-B (CYQY)
Tue 01:50:57 AM 46.7673 -61.3137 79° East 547 629 35,000  Level FlightAware ADS-B (CYQY)
Tue 01:51:16 AM 46.7759 -61.2440 79° East 547 629 35,000  Level FlightAware ADS-B (CYQY)
Tue 01:51:56 AM 46.7938 -61.0976 80° East 547 629 35,000  Level FlightAware ADS-B (CYQY)
Tue 01:52:25 AM 46.8065 -60.9932 80° East 546 628 35,000  Level FlightAware ADS-B (CYQY)
Tue 01:52:49 AM 46.8168 -60.9063 80° East 545 627 35,000  Level FlightAware ADS-B (CYQY)
Tue 01:53:28 AM 46.8337 -60.7648 80° East 543 625 35,000  Level FlightAware ADS-B (CYQY)
Tue 01:53:59 AM 46.8469 -60.6514 80° East 543 625 35,000  Level FlightAware ADS-B (CYQY)
Tue 01:54:24 AM 46.8573 -60.5627 80° East 543 625 35,000  Level FlightAware ADS-B (CYQY)
Tue 01:54:40 AM 46.8642 -60.5034 80° East 543 625 35,000  Level FlightAware ADS-B (CYQY)
Tue 01:55:28 AM 46.8819 -60.3496 80° East 543 625 35,000  Level FlightAware ADS-B (CYQY)
Tue 01:55:52 AM 46.8858 -60.3157 80° East 543 625 35,000  Level FlightAware ADS-B (CYQY)
Tue 01:56:25 AM 46.9066 -60.1315 80° East 543 625 35,000  Level FlightAware ADS-B (CYQY)
Tue 01:56:55 AM 46.9179 -60.0303 80° East 543 625 35,000  Level FlightAware ADS-B (CYQY)
Tue 01:57:17 AM 46.9236 -59.9797 80° East 543 625 35,000  Level FlightAware ADS-B (CYQY)
Tue 01:57:51 AM 46.9396 -59.8346 80° East 541 623 35,000  Level FlightAware ADS-B (CYQY)
Tue 01:58:47 AM 46.9500 -59.6000 80° East 540 621 35,000  Level Gander Center
Tue 01:59:47 AM 46.9833 -59.4000 76° East 540 621 35,000  Level Gander Center
Tue 02:00:47 AM 46.9833 -59.1500 90° East 540 621 35,000  Level Gander Center
Tue 02:01:47 AM 47.0167 -58.9500 76° East 540 621 35,000  Level Gander Center
Tue 02:02:47 AM 47.0333 -58.7333 83° East 540 621 35,000  Level Gander Center
Tue 02:03:47 AM 47.0667 -58.5167 77° East 540 621 35,000  Level Gander Center
Tue 02:04:47 AM 47.0667 -58.2833 90° East 540 621 35,000  Level Gander Center
Tue 02:05:47 AM 47.1000 -58.0667 77° East 540 621 35,000  Level Gander Center
Tue 02:06:47 AM 47.1333 -57.8667 76° East 530 610 35,000  Level Gander Center
Tue 02:07:47 AM 47.1333 -57.6500 90° East 530 610 35,000  Level Gander Center
Tue 02:08:47 AM 47.1667 -57.4333 77° East 530 610 35,000  Level Gander Center
Tue 02:09:47 AM 47.1667 -57.2000 90° East 530 610 35,000  Level Gander Center
Tue 02:10:47 AM 47.2000 -57.0000 76° East 530 610 35,000  Level Gander Center
Tue 02:11:47 AM 47.2000 -56.8000 90° East 530 610 35,000  Level Gander Center
Tue 02:12:47 AM 47.2333 -56.5833 77° East 530 610 35,000  Level Gander Center
Tue 02:13:47 AM 47.2500 -56.3667 83° East 530 610 35,000  Level Gander Center
Tue 02:14:47 AM 47.2667 -56.1333 84° East 530 610 35,000  Level Gander Center
Tue 02:15:47 AM 47.2833 -55.9333 83° East 530 610 35,000  Level Gander Center
Tue 02:16:47 AM 47.2833 -55.7167 90° East 530 610 35,000  Level Gander Center
Tue 02:17:47 AM 47.3167 -55.4833 78° East 530 610 35,000  Level Gander Center
Tue 02:18:47 AM 47.3333 -55.2833 83° East 530 610 35,000  Level Gander Center
Tue 02:19:47 AM 47.3333 -55.0667 90° East 530 610 35,000  Level Gander Center
Tue 02:20:47 AM 47.3667 -54.8500 77° East 530 610 35,000  Level Gander Center
Tue 02:21:47 AM 47.3667 -54.6167 90° East 530 610 35,000  Level Gander Center
Tue 02:22:47 AM 47.3833 -54.4167 83° East 530 610 35,000  Level Gander Center
Tue 02:23:47 AM 47.3833 -54.2167 90° East 530 610 35,000  Level Gander Center
Tue 02:24:47 AM 47.4000 -54.0000 83° East 530 610 35,000  Level Gander Center
Tue 02:25:47 AM 47.4333 -53.8000 76° East 520 598 35,000  Level Gander Center
Tue 02:26:47 AM 47.4333 -53.5667 90° East 520 598 35,000  Level Gander Center
Tue 02:27:47 AM 47.4500 -53.3500 83° East 520 598 35,000  Level Gander Center
Tue 02:28:47 AM 47.4500 -53.1500 90° East 520 598 35,000  Level Gander Center
Tue 02:29:47 AM 47.4667 -52.9167 84° East 520 598 35,000  Level Gander Center
Tue 02:30:47 AM 47.4833 -52.7167 83° East 510 587 35,000  Level Gander Center
Tue 02:31:47 AM 47.5167 -52.5167 76° East 510 587 35,000  Level Gander Center
Tue 02:32:47 AM 47.5667 -52.3000 71° East 510 587 35,000  Level Gander Center
Tue 02:33:47 AM 47.6000 -52.1333 73° East 510 587 35,000  Level Gander Center
Tue 02:34:47 AM 47.6333 -51.9167 77° East 510 587 35,000  Level Gander Center
Tue 02:35:47 AM 47.6667 -51.7167 76° East 510 587 35,000  Level Gander Center
Tue 02:36:47 AM 47.7000 -51.5167 76° East 510 587 35,000  Level Gander Center
Tue 02:37:47 AM 47.7500 -51.3000 71° East 510 587 35,000  Level Gander Center
Tue 02:38:47 AM 47.7833 -51.1000 76° East 510 587 35,000  Level Gander Center
Tue 02:39:47 AM 47.8167 -50.8833 77° East 510 587 35,000  Level Gander Center
Tue 02:40:47 AM 47.8667 -50.7000 68° East 500 575 35,000  Level Gander Center
Tue 02:41:47 AM 47.9000 -50.5000 76° East 500 575 35,000  Level Gander Center
Tue 02:42:47 AM 47.9333 -50.2833 77° East 500 575 35,000  Level Gander Center
Tue 02:43:47 AM 47.9500 -50.1000 82° East 500 575 35,000  Level Gander Center
Tue 02:44:47 AM 48.0000 -49.8667 72° East 510 587 35,000  Level Gander Center
Tue 02:45:47 AM 48.0500 -49.6833 68° East 500 575 35,000  Level Gander Center
Tue 02:46:47 AM 48.1000 -49.5000 68° East 500 575 35,000  Level Gander Center
Tue 02:47:47 AM 48.1500 -49.3000 69° East 500 575 35,000  Level Gander Center
Tue 02:48:47 AM 48.1833 -49.1167 75° East 500 575 35,000  Level Gander Center
Tue 02:49:47 AM 48.2333 -48.9000 71° East 510 587 35,000  Level Gander Center
Tue 02:50:47 AM 48.2833 -48.7167 68° East 510 587 35,000  Level Gander Center
Tue 02:51:47 AM 48.3167 -48.5000 77° East 510 587 35,000  Level Gander Center
Tue 02:52:47 AM 48.3833 -48.3000 63° Northeast 510 587 35,000  Level Gander Center
Tue 02:53:47 AM 48.4333 -48.1167 68° East 510 587 35,000  Level Gander Center
Tue 02:54:47 AM 48.4667 -47.9000 77° East 500 575 35,000  Level Gander Center
Tue 02:55:47 AM 48.5167 -47.7167 68° East 510 587 35,000  Level Gander Center
Tue 02:56:47 AM 48.5667 -47.5000 71° East 510 587 35,000  Level Gander Center
Tue 02:57:47 AM 48.6000 -47.3333 73° East 500 575 35,000  Level Gander Center
Tue 02:58:47 AM 48.6500 -47.1167 71° East 500 575 35,000  Level Gander Center
Tue 02:59:47 AM 48.6833 -46.9167 76° East 500 575 35,000  Level Gander Center
Tue 03:00:47 AM 48.7333 -46.7333 67° East 500 575 35,000 13 Level Gander Center
Tue 03:02:00 AM 48.7946 -46.4966 68° East  Level FlightAware Approximate
Tue 03:09:00 AM 49.1021 -45.1045 72° East  Level FlightAware Approximate
Tue 03:10:00 AM 49.1425 -44.9033 73° East  Level FlightAware Approximate
Tue 03:11:00 AM 49.1825 -44.7016 73° East  Level FlightAware Approximate
Tue 03:12:00 AM 49.2221 -44.4997 73° East  Level FlightAware Approximate
Tue 03:13:00 AM 49.2614 -44.2974 73° East  Level FlightAware Approximate
Tue 03:14:00 AM 49.3003 -44.0948 74° East  Level FlightAware Approximate
Tue 03:15:00 AM 49.3389 -43.8919 74° East  Level FlightAware Approximate
Tue 03:16:00 AM 49.3771 -43.6887 74° East  Level FlightAware Approximate
Tue 03:17:00 AM 49.4150 -43.4851 74° East  Level FlightAware Approximate
Tue 03:18:00 AM 49.4525 -43.2813 74° East  Level FlightAware Approximate
Tue 03:19:00 AM 49.4897 -43.0771 74° East  Level FlightAware Approximate
Tue 03:20:00 AM 49.5265 -42.8726 74° East  Level FlightAware Approximate
Tue 03:21:00 AM 49.5629 -42.6679 75° East  Level FlightAware Approximate
Tue 03:22:00 AM 49.5989 -42.4628 75° East  Level FlightAware Approximate
Tue 03:23:00 AM 49.6347 -42.2574 75° East  Level FlightAware Approximate
Tue 03:24:00 AM 49.6700 -42.0517 75° East  Level FlightAware Approximate
Tue 03:25:00 AM 49.7050 -41.8457 75° East  Level FlightAware Approximate
Tue 03:26:00 AM 49.7396 -41.6394 75° East  Level FlightAware Approximate
Tue 03:27:00 AM 49.7738 -41.4329 76° East  Level FlightAware Approximate
Tue 03:28:00 AM 49.8077 -41.2260 76° East  Level FlightAware Approximate
Tue 03:29:00 AM 49.8412 -41.0188 76° East  Level FlightAware Approximate
Tue 03:30:00 AM 49.8744 -40.8114 76° East  Level FlightAware Approximate
Tue 03:31:00 AM 49.9071 -40.6037 76° East  Level FlightAware Approximate
Tue 03:32:00 AM 49.9395 -40.3957 76° East  Level FlightAware Approximate
Tue 03:33:00 AM 49.9715 -40.1874 76° East  Level FlightAware Approximate
Tue 03:34:00 AM 50.0031 -39.9788 77° East  Level FlightAware Approximate
Tue 03:35:00 AM 50.0333 -39.7696 77° East  Level FlightAware Approximate
Tue 03:36:00 AM 50.0632 -39.5602 77° East  Level FlightAware Approximate
Tue 03:37:00 AM 50.0927 -39.3504 78° East  Level FlightAware Approximate
Tue 03:38:00 AM 50.1218 -39.1405 78° East  Level FlightAware Approximate
Tue 03:39:00 AM 50.1505 -38.9302 78° East  Level FlightAware Approximate
Tue 03:40:00 AM 50.1788 -38.7197 78° East  Level FlightAware Approximate
Tue 03:41:00 AM 50.2068 -38.5090 78° East  Level FlightAware Approximate
Tue 03:42:00 AM 50.2344 -38.2980 78° East  Level FlightAware Approximate
Tue 03:43:00 AM 50.2616 -38.0868 79° East  Level FlightAware Approximate
Tue 03:44:00 AM 50.2884 -37.8754 79° East  Level FlightAware Approximate
Tue 03:45:00 AM 50.3149 -37.6637 79° East  Level FlightAware Approximate
Tue 03:46:00 AM 50.3409 -37.4518 79° East  Level FlightAware Approximate
Tue 03:47:00 AM 50.3666 -37.2396 79° East  Level FlightAware Approximate
Tue 03:48:00 AM 50.3918 -37.0272 79° East  Level FlightAware Approximate
Tue 03:49:00 AM 50.4167 -36.8146 80° East  Level FlightAware Approximate
Tue 03:50:00 AM 50.4412 -36.6018 80° East  Level FlightAware Approximate
Tue 03:51:00 AM 50.4654 -36.3887 80° East  Level FlightAware Approximate
Tue 03:52:00 AM 50.4891 -36.1755 80° East  Level FlightAware Approximate
Tue 03:53:00 AM 50.5124 -35.9620 80° East  Level FlightAware Approximate
Tue 03:54:00 AM 50.5354 -35.7483 80° East  Level FlightAware Approximate
Tue 03:55:00 AM 50.5579 -35.5344 80° East  Level FlightAware Approximate
Tue 03:56:00 AM 50.5801 -35.3203 81° East  Level FlightAware Approximate
Tue 03:57:00 AM 50.6018 -35.1060 81° East  Level FlightAware Approximate
Tue 03:58:00 AM 50.6232 -34.8915 81° East  Level FlightAware Approximate
Tue 03:59:00 AM 50.6442 -34.6768 81° East  Level FlightAware Approximate
Tue 04:00:00 AM 50.6648 -34.4620 81° East  Level FlightAware Approximate
Tue 04:01:00 AM 50.6850 -34.2469 81° East  Level FlightAware Approximate
Tue 04:02:00 AM 50.7048 -34.0317 82° East  Level FlightAware Approximate
Tue 04:03:00 AM 50.7242 -33.8162 82° East  Level FlightAware Approximate
Tue 04:04:00 AM 50.7432 -33.6006 82° East  Level FlightAware Approximate
Tue 04:05:00 AM 50.7618 -33.3848 82° East  Level FlightAware Approximate
Tue 04:06:00 AM 50.7800 -33.1689 82° East  Level FlightAware Approximate
Tue 04:07:00 AM 50.7978 -32.9528 82° East  Level FlightAware Approximate
Tue 04:08:00 AM 50.8152 -32.7365 83° East  Level FlightAware Approximate
Tue 04:09:00 AM 50.8322 -32.5201 83° East  Level FlightAware Approximate
Tue 04:10:00 AM 50.8488 -32.3035 83° East  Level FlightAware Approximate
Tue 04:11:00 AM 50.8650 -32.0868 83° East  Level FlightAware Approximate
Tue 04:12:00 AM 50.8808 -31.8699 83° East  Level FlightAware Approximate
Tue 04:13:00 AM 50.8962 -31.6528 83° East  Level FlightAware Approximate
Tue 04:14:00 AM 50.9112 -31.4356 84° East  Level FlightAware Approximate
Tue 04:15:00 AM 50.9258 -31.2183 84° East  Level FlightAware Approximate
Tue 04:16:00 AM 50.9400 -31.0009 84° East  Level FlightAware Approximate
Tue 04:17:00 AM 50.9538 -30.7833 84° East  Level FlightAware Approximate
Tue 04:18:00 AM 50.9672 -30.5656 84° East  Level FlightAware Approximate
Tue 04:19:00 AM 50.9801 -30.3477 85° East  Level FlightAware Approximate
Tue 04:20:00 AM 50.9927 -30.1298 85° East  Level FlightAware Approximate
Tue 04:21:00 AM 51.0121 -29.9135 77° East  Level FlightAware Approximate
Tue 04:22:00 AM 51.0416 -29.6995 78° East  Level FlightAware Approximate
Tue 04:23:00 AM 51.0707 -29.4853 78° East  Level FlightAware Approximate
Tue 04:24:00 AM 51.0995 -29.2708 78° East  Level FlightAware Approximate
Tue 04:25:00 AM 51.1278 -29.0560 78° East  Level FlightAware Approximate
Tue 04:26:00 AM 51.1558 -28.8410 78° East  Level FlightAware Approximate
Tue 04:27:00 AM 51.1834 -28.6257 78° East  Level FlightAware Approximate
Tue 04:28:00 AM 51.2105 -28.4101 79° East  Level FlightAware Approximate
Tue 04:29:00 AM 51.2373 -28.1943 79° East  Level FlightAware Approximate
Tue 04:30:00 AM 51.2637 -27.9783 79° East  Level FlightAware Approximate
Tue 04:31:00 AM 51.2897 -27.7620 79° East  Level FlightAware Approximate
Tue 04:32:00 AM 51.3153 -27.5455 79° East  Level FlightAware Approximate
Tue 04:33:00 AM 51.3424 -27.3293 78° East  Level FlightAware Approximate
Tue 04:34:00 AM 51.3694 -27.1129 79° East  Level FlightAware Approximate
Tue 04:35:00 AM 51.3959 -26.8963 79° East  Level FlightAware Approximate
Tue 04:36:00 AM 51.4220 -26.6794 79° East  Level FlightAware Approximate
Tue 04:37:00 AM 51.4477 -26.4623 79° East  Level FlightAware Approximate
Tue 04:38:00 AM 51.4728 -26.2449 80° East  Level FlightAware Approximate
Tue 04:39:00 AM 51.4970 -26.0270 80° East  Level FlightAware Approximate
Tue 04:40:00 AM 51.5207 -25.8090 80° East  Level FlightAware Approximate
Tue 04:41:00 AM 51.5440 -25.5907 80° East  Level FlightAware Approximate
Tue 04:42:00 AM 51.5670 -25.3722 80° East  Level FlightAware Approximate
Tue 04:43:00 AM 51.5895 -25.1535 81° East  Level FlightAware Approximate
Tue 04:44:00 AM 51.6117 -24.9345 81° East  Level FlightAware Approximate
Tue 04:45:00 AM 51.6334 -24.7154 81° East  Level FlightAware Approximate
Tue 04:46:00 AM 51.6548 -24.4961 81° East  Level FlightAware Approximate
Tue 04:47:00 AM 51.6758 -24.2766 81° East  Level FlightAware Approximate
Tue 04:48:00 AM 51.6964 -24.0568 81° East  Level FlightAware Approximate
Tue 04:49:00 AM 51.7165 -23.8369 81° East  Level FlightAware Approximate
Tue 04:50:00 AM 51.7363 -23.6167 82° East  Level FlightAware Approximate
Tue 04:51:00 AM 51.7556 -23.3964 82° East  Level FlightAware Approximate
Tue 04:52:00 AM 51.7746 -23.1759 82° East  Level FlightAware Approximate
Tue 04:53:00 AM 51.7931 -22.9552 82° East  Level FlightAware Approximate
Tue 04:54:00 AM 51.8112 -22.7343 82° East  Level FlightAware Approximate
Tue 04:55:00 AM 51.8289 -22.5133 83° East  Level FlightAware Approximate
Tue 04:56:00 AM 51.8461 -22.2921 83° East  Level FlightAware Approximate
Tue 04:57:00 AM 51.8630 -22.0707 83° East  Level FlightAware Approximate
Tue 04:58:00 AM 51.8794 -21.8491 83° East  Level FlightAware Approximate
Tue 04:59:00 AM 51.8954 -21.6274 83° East  Level FlightAware Approximate
Tue 05:00:00 AM 51.9110 -21.4056 83° East  Level FlightAware Approximate
Tue 05:01:00 AM 51.9262 -21.1835 84° East  Level FlightAware Approximate
Tue 05:02:00 AM 51.9410 -20.9614 84° East  Level FlightAware Approximate
Tue 05:03:00 AM 51.9554 -20.7390 84° East  Level FlightAware Approximate
Tue 05:04:00 AM 51.9693 -20.5166 84° East  Level FlightAware Approximate
Tue 05:05:00 AM 51.9828 -20.2940 84° East  Level FlightAware Approximate
Tue 05:06:00 AM 51.9959 -20.0713 84° East  Level FlightAware Approximate
Tue 05:07:00 AM 51.9829 -19.8504 100° East  Level FlightAware Approximate
Tue 05:08:00 AM 51.9575 -19.6306 101° East  Level FlightAware Approximate
Tue 05:09:00 AM 51.9316 -19.4111 101° East  Level FlightAware Approximate
Tue 05:10:00 AM 51.9054 -19.1918 101° East  Level FlightAware Approximate
Tue 05:11:00 AM 51.8787 -18.9727 101° East  Level FlightAware Approximate
Tue 05:12:00 AM 51.8516 -18.7540 101° East  Level FlightAware Approximate
Tue 05:13:00 AM 51.8241 -18.5355 101° East  Level FlightAware Approximate
Tue 05:14:00 AM 51.7962 -18.3173 102° East  Level FlightAware Approximate
Tue 05:15:00 AM 51.7679 -18.0993 102° East  Level FlightAware Approximate
Tue 05:16:00 AM 51.7393 -17.8816 102° East  Level FlightAware Approximate
Tue 05:17:00 AM 51.7102 -17.6642 102° East  Level FlightAware Approximate
Tue 05:18:00 AM 51.6808 -17.4470 102° East  Level FlightAware Approximate
Tue 05:19:00 AM 51.6522 -17.2297 102° East  Level FlightAware Approximate
Tue 05:20:00 AM 51.6232 -17.0127 102° East  Level FlightAware Approximate
Tue 05:21:00 AM 51.5938 -16.7960 102° East  Level FlightAware Approximate
Tue 05:22:00 AM 51.5640 -16.5795 102° East  Level FlightAware Approximate
Tue 05:23:00 AM 51.5338 -16.3633 103° East  Level FlightAware Approximate
Tue 05:24:00 AM 51.5033 -16.1474 103° East  Level FlightAware Approximate
Tue 05:25:00 AM 51.4723 -15.9318 103° East  Level FlightAware Approximate
Tue 05:26:00 AM 51.4409 -15.7165 103° East  Level FlightAware Approximate
Tue 05:27:00 AM 51.4091 -15.5015 103° East  Level FlightAware Approximate
Tue 05:28:00 AM 51.3770 -15.2868 103° East  Level FlightAware Approximate
Tue 05:29:00 AM 51.3444 -15.0724 104° East  Level FlightAware Approximate
Tue 05:30:00 AM 51.3109 -14.8586 104° East  Level FlightAware Approximate
Tue 05:31:00 AM 51.2767 -14.6451 104° East  Level FlightAware Approximate
Tue 05:32:00 AM 51.2421 -14.4320 104° East  Level FlightAware Approximate
Tue 05:33:00 AM 51.2071 -14.2192 105° East  Level FlightAware Approximate
Tue 05:34:00 AM 51.1717 -14.0068 105° East  Level FlightAware Approximate
Tue 05:35:00 AM 51.1359 -13.7947 105° East  Level FlightAware Approximate
Tue 05:36:00 AM 51.0998 -13.5829 105° East  Level FlightAware Approximate
Tue 05:37:00 AM 51.0633 -13.3714 105° East  Level FlightAware Approximate
Tue 05:37:06 AM 51.5213 -12.3879 108° East 506 582 37,000  Level FlightAware ADS-B (EXT / EGTE)
Tue 05:38:00 AM 51.0263 -13.1603 106° East  Level FlightAware Approximate
Tue 05:38:19 AM 51.4705 -12.1307 108° East 507 583 37,000  Level FlightAware ADS-B (EXT / EGTE)
Tue 05:38:50 AM 51.4495 -12.0251 108° East 507 583 37,000  Level FlightAware ADS-B (EXT / EGTE)
Tue 05:39:32 AM 51.4177 -11.8672 108° East 504 580 37,000  Level FlightAware ADS-B (EXT / EGTE)
Tue 05:40:03 AM 51.3963 -11.7611 108° East 504 580 37,000  Level FlightAware ADS-B (EXT / EGTE)
Tue 05:40:33 AM 51.3747 -11.6552 108° East 504 580 37,000  Level FlightAware ADS-B (EXT / EGTE)
Tue 05:41:12 AM 51.3463 -11.5162 108° East 503 579 37,000  Level FlightAware ADS-B (EXT / EGTE)
Tue 05:41:42 AM 51.3246 -11.4112 108° East 504 580 37,000  Level FlightAware ADS-B (EXT / EGTE)
Tue 05:42:30 AM 51.2895 -11.2419 108° East 505 581 37,000  Level FlightAware ADS-B (EXT / EGTE)
Tue 05:43:20 AM 51.2530 -11.0671 109° East 505 581 37,000  Level FlightAware ADS-B (EXT / EGTE)
Tue 05:43:50 AM 51.2306 -10.9609 109° East 504 580 37,000  Level FlightAware ADS-B (EXT / EGTE)
Tue 05:44:34 AM 51.1975 -10.8045 109° East 503 579 37,000  Level FlightAware ADS-B (EXT / EGTE)
Tue 05:45:09 AM 51.1718 -10.6843 109° East 503 579 37,000  Level FlightAware ADS-B (EXT / EGTE)
Tue 05:45:39 AM 51.1496 -10.5809 109° East 503 579 37,000  Level FlightAware ADS-B (EXT / EGTE)
Tue 05:46:22 AM 51.1169 -10.4294 109° East 504 580 37,000  Level FlightAware ADS-B (EXT / EGTE)
Tue 05:47:01 AM 51.0883 -10.2982 109° East 504 580 37,000  Level FlightAware ADS-B (EXT / EGTE)
Tue 05:48:03 AM 51.0394 -10.0748 109° East 504 580 37,000  Level FlightAware ADS-B (EXT / EGTE)
Tue 05:52:06 AM 50.8528 -9.2454 110° East 504 580 37,000  Level FlightAware ADS-B
Tue 05:52:53 AM 50.8119 -9.0675 110° East 506 582 37,000  Level FlightAware ADS-B
Tue 05:53:46 AM 50.7682 -8.8774 110° East 506 582 37,000  Level FlightAware UK
Tue 05:54:16 AM 50.7446 -8.7734 110° East 506 582 37,000  Level FlightAware UK
Tue 05:54:24 AM 50.7381 -8.7509 110° East 507 583 37,000  Level FlightAware ADS-B (MRH / EGYM)
Tue 05:54:46 AM 50.7214 -8.6699 109° East 506 582 37,000  Level FlightAware UK
Tue 05:54:54 AM 50.7327 -8.7281 110° East 507 583 37,000  Level FlightAware ADS-B (MRH / EGYM)
Tue 05:55:29 AM 50.6850 -8.5258 111° Southeast 506 582 37,000  Level FlightAware ADS-B (MRH / EGYM)
Tue 05:56:00 AM 50.6592 -8.4176 111° Southeast 507 583 37,000  Level FlightAware ADS-B (MRH / EGYM)
Tue 05:56:37 AM 50.6317 -8.3025 111° Southeast 508 585 37,000  Level FlightAware ADS-B (MRH / EGYM)
Tue 05:57:09 AM 50.6032 -8.1834 111° Southeast 507 583 37,000  Level FlightAware ADS-B (MRH / EGYM)
Tue 05:57:47 AM 50.5727 -8.0491 111° Southeast 506 582 37,000  Level FlightAware UK
Tue 05:57:52 AM 50.5674 -8.0358 111° Southeast 506 582 37,000  Level FlightAware ADS-B (MRH / EGYM)
Tue 05:58:25 AM 50.5391 -7.9194 111° Southeast 506 582 37,000  Level FlightAware ADS-B (MRH / EGYM)
Tue 05:59:14 AM 50.4989 -7.7555 111° Southeast 505 581 37,000  Level FlightAware ADS-B (MRH / EGYM)
Tue 05:59:50 AM 50.4690 -7.6343 111° Southeast 504 580 37,000  Level FlightAware ADS-B (MRH / EGYM)
Tue 06:00:41 AM 50.4253 -7.4581 111° Southeast 502 578 37,000  Level FlightAware ADS-B (MRH / EGYM)
Tue 06:01:17 AM 50.3938 -7.3338 111° Southeast 500 575 37,000  Level FlightAware UK
Tue 06:01:32 AM 50.4013 -7.3621 112° Southeast 502 578 37,000  Level FlightAware ADS-B (MRH / EGYM)
Tue 06:02:17 AM 50.3429 -7.1316 112° Southeast 502 578 37,000  Level FlightAware UK
Tue 06:02:26 AM 50.3544 -7.1752 112° Southeast 502 578 37,000  Level FlightAware ADS-B (MRH / EGYM)
Tue 06:03:05 AM 50.3097 -6.9986 112° Southeast 503 579 37,000  Level FlightAware ADS-B (MRH / EGYM)
Tue 06:03:41 AM 50.2729 -6.8545 112° Southeast 503 579 37,000  Level FlightAware ADS-B (MRH / EGYM)
Tue 06:04:11 AM 50.2472 -6.7538 112° Southeast 501 577 37,000  Level FlightAware ADS-B (MRH / EGYM)
Tue 06:04:47 AM 50.2151 -6.6272 112° Southeast 500 575 37,000  Level FlightAware UK
Tue 06:05:15 AM 50.1919 -6.5400 112° Southeast 500 575 37,000  Level FlightAware ADS-B (MRH / EGYM)
Tue 06:05:47 AM 50.1629 -6.4275 112° Southeast 498 573 37,000  Level FlightAware UK
Tue 06:06:08 AM 50.1457 -6.3623 112° Southeast 499 574 37,000  Level FlightAware ADS-B (MRH / EGYM)
Tue 06:06:47 AM 50.1114 -6.2315 112° Southeast 499 574 37,000  Level FlightAware ADS-B
Tue 06:06:50 AM 50.1083 -6.2196 111° Southeast 496 571 37,000  Level FlightAware ADS-B
Tue 06:07:30 AM 50.0776 -6.1034 112° Southeast 501 577 37,000  Level FlightAware ADS-B (MRH / EGYM)
Tue 06:08:18 AM 50.0310 -5.9280 113° Southeast 501 577 37,000  Level FlightAware ADS-B (MRH / EGYM)
Tue 06:08:49 AM 50.0040 -5.8270 113° Southeast 503 579 37,000  Level FlightAware ADS-B (MRH / EGYM)
Tue 06:09:19 AM 49.9772 -5.7273 113° Southeast 503 579 37,000  Level FlightAware ADS-B (MRH / EGYM)
Tue 06:09:50 AM 49.9497 -5.6249 113° Southeast 503 579 37,000  Level FlightAware ADS-B (MRH / EGYM)
Tue 06:10:20 AM 49.9235 -5.5281 113° Southeast 503 579 37,000  Level FlightAware ADS-B (MRH / EGYM)
Tue 06:10:50 AM 49.8959 -5.4268 113° Southeast 502 578 37,000  Level FlightAware ADS-B (MRH / EGYM)
Tue 06:11:24 AM 49.8653 -5.3146 113° Southeast 502 578 37,000  Level FlightAware ADS-B (MRH / EGYM)
Tue 06:11:54 AM 49.8375 -5.2131 113° Southeast 501 577 37,000  Level FlightAware ADS-B (MRH / EGYM)
Tue 06:12:27 AM 49.8075 -5.1045 113° Southeast 501 577 37,000  Level FlightAware ADS-B (MRH / EGYM)
Tue 06:12:57 AM 49.7804 -5.0064 113° Southeast 503 579 37,000  Level FlightAware ADS-B (MRH / EGYM)
Tue 06:13:31 AM 49.7502 -4.8978 113° Southeast 503 579 37,000  Level FlightAware ADS-B (KTW / EPKT)
Tue 06:14:01 AM 49.7213 -4.7944 113° Southeast 504 580 37,000  Level FlightAware ADS-B (MRH / EGYM)
Tue 06:14:12 AM 49.7119 -4.7608 113° Southeast 501 577 37,000  Level FlightAware ADS-B
Tue 06:14:28 AM 49.6968 -4.7067 113° Southeast 502 578 37,000  Level FlightAware ADS-B
Tue 06:15:02 AM 49.6659 -4.5972 114° Southeast 506 582 37,000  Level FlightAware ADS-B (MRH / EGYM)
Tue 06:15:12 AM 49.6557 -4.5609 113° Southeast 504 580 37,000  Level FlightAware ADS-B
Tue 06:15:43 AM 49.6285 -4.4649 114° Southeast 508 585 37,000  Level FlightAware ADS-B (MRH / EGYM)
Tue 06:16:15 AM 49.6002 -4.3610 110° East 508 585 37,000  Level FlightAware ADS-B (MRH / EGYM)
Tue 06:16:21 AM 49.5938 -4.3308 112° Southeast 509 586 37,000  Level FlightAware ADS-B
Tue 06:16:36 AM 49.5868 -4.2839 100° East 506 582 37,000  Level FlightAware ADS-B (KTW / EPKT)
Tue 06:17:03 AM 49.5756 -4.1836 99° East 503 579 37,000  Level FlightAware ADS-B
Tue 06:17:36 AM 49.5624 -4.0694 100° East 504 580 37,000  Level FlightAware ADS-B (KTW / EPKT)
Tue 06:18:13 AM 49.5471 -3.9391 100° East 504 580 37,000  Level FlightAware ADS-B (MRH / EGYM)
Tue 06:18:43 AM 49.5346 -3.8326 100° East 505 581 37,000  Level FlightAware ADS-B (MRH / EGYM)
Tue 06:19:14 AM 49.5218 -3.7249 100° East 504 580 37,000  Level FlightAware ADS-B
Tue 06:20:06 AM 49.4995 -3.5387 100° East 504 580 37,000  Level FlightAware ADS-B
Tue 06:20:36 AM 49.4876 -3.4415 101° East 507 583 37,000  Level FlightAware ADS-B (KTW / EPKT)
Tue 06:21:07 AM 49.4743 -3.3336 101° East 506 582 37,000  Level FlightAware ADS-B (KTW / EPKT)
Tue 06:21:49 AM 49.4549 -3.1761 100° East 503 579 37,000  Level FlightAware ADS-B
Tue 06:22:33 AM 49.4373 -3.0344 101° East 504 580 37,000  Level FlightAware ADS-B (KTW / EPKT)
Tue 06:23:13 AM 49.4180 -2.8826 101° East 503 579 37,000  Level FlightAware ADS-B
Tue 06:23:44 AM 49.4044 -2.7750 101° East 503 579 37,000  Level FlightAware ADS-B (BOH / EGHH)
Tue 06:24:15 AM 49.3905 -2.6676 101° East 503 579 37,000  Level FlightAware ADS-B (KTW / EPKT)
Tue 06:24:46 AM 49.3762 -2.5567 101° East 503 579 37,000  Level FlightAware ADS-B
Tue 06:25:16 AM 49.3625 -2.4507 101° East 503 579 37,000  Level FlightAware ADS-B (KTW / EPKT)
Tue 06:25:50 AM 49.3476 -2.3371 102° East 503 579 37,000  Level FlightAware ADS-B (BOH / EGHH)
Tue 06:26:02 AM 49.3415 -2.2911 101° East 503 579 37,000  Level FlightAware ADS-B
Tue 06:26:36 AM 49.3270 -2.1825 102° East 502 578 37,000  Level FlightAware ADS-B
Tue 06:27:06 AM 49.3122 -2.0721 102° East 501 577 37,000  Level FlightAware ADS-B (KTW / EPKT)
Tue 06:27:38 AM 49.2972 -1.9611 102° East 502 578 37,000  Level FlightAware ADS-B (BOH / EGHH)
Tue 06:28:07 AM 49.2836 -1.8604 101° East 501 577 37,000  Level FlightAware ADS-B
Tue 06:28:40 AM 49.2680 -1.7467 101° East 500 575 37,000  Level FlightAware ADS-B (BOH / EGHH)
Tue 06:28:59 AM 49.2588 -1.6801 101° East 500 575 37,000  Level FlightAware ADS-B (BOH / EGHH)
Tue 06:29:18 AM 49.2496 -1.6137 102° East 501 577 37,000  Level FlightAware ADS-B (JER / EGJJ)
Tue 06:29:23 AM 49.2478 -1.6005 102° East 501 577 37,000  Level FlightAware ADS-B
Tue 06:29:37 AM 49.2409 -1.5507 102° East 501 577 37,000  Level FlightAware ADS-B
Tue 06:29:45 AM 49.2372 -1.5245 102° East 501 577 37,000  Level FlightAware ADS-B
Tue 06:29:51 AM 49.2341 -1.5024 102° East 501 577 37,000  Level FlightAware ADS-B
Tue 06:30:05 AM 49.2263 -1.4471 101° East 500 575 37,000  Level FlightAware ADS-B (BOH / EGHH)
Tue 06:30:37 AM 49.2155 -1.3712 102° East 501 577 37,000  Level FlightAware ADS-B
Tue 06:30:55 AM 49.2031 -1.2835 101° East 500 575 37,000  Level FlightAware ADS-B
Tue 06:31:13 AM 49.1935 -1.2157 101° East 500 575 37,000  Level FlightAware ADS-B (BOH / EGHH)
Tue 06:31:46 AM 49.1778 -1.1052 102° East 501 577 37,000  Level FlightAware ADS-B (BOH / EGHH)
Tue 06:31:51 AM 49.1776 -1.1038 103° East 503 579 37,000  Level FlightAware ADS-B
Tue 06:32:15 AM 49.1628 -1.0015 103° East 503 579 37,000  Level FlightAware ADS-B
Tue 06:32:35 AM 49.1531 -0.9345 102° East 500 575 37,000  Level FlightAware ADS-B (BOH / EGHH)
Tue 06:32:43 AM 49.1487 -0.9049 103° East 502 578 37,000  Level FlightAware ADS-B
Tue 06:33:00 AM 49.1405 -0.8483 102° East 499 574 37,000  Level FlightAware ADS-B
Tue 06:33:24 AM 49.1284 -0.7657 102° East 499 574 37,000  Level FlightAware ADS-B (BOH / EGHH)
Tue 06:33:47 AM 49.1167 -0.6858 103° East 502 578 37,000  Level FlightAware ADS-B (CYUL)
Tue 06:34:24 AM 49.1201 -0.7092 103° East 502 578 37,000  Level FlightAware ADS-B (JER / EGJJ)
Tue 06:35:02 AM 49.0775 -0.4225 103° East 502 578 37,000  Level FlightAware UK
Tue 06:35:05 AM 49.0794 -0.4350 103° East 504 580 37,000  Level FlightAware ADS-B (JER / EGJJ)
Tue 06:35:39 AM 49.0593 -0.3018 103° East 505 581 37,000  Level FlightAware ADS-B (KTW / EPKT)
Tue 06:36:09 AM 49.0434 -0.1966 103° East 506 582 37,000  Level FlightAware ADS-B
Tue 06:36:47 AM 49.0232 -0.0645 103° East 505 581 37,000  Level FlightAware ADS-B
Tue 06:37:24 AM 49.0045 0.0564 103° East 506 582 37,000  Level FlightAware ADS-B
Tue 06:37:55 AM 48.9927 0.1323 104° East 505 581 37,000  Level FlightAware ADS-B
Tue 06:38:25 AM 48.9708 0.2714 103° East 504 580 37,000  Level FlightAware ADS-B
Tue 06:39:02 AM 48.9493 0.4078 103° East 502 578 37,000  Level FlightAware UK
Tue 06:39:11 AM 48.9457 0.4314 104° East 503 579 37,000  Level FlightAware ADS-B
Tue 06:39:45 AM 48.9289 0.5529 104° East 500 575 37,000  Level FlightAware UK
Tue 06:39:50 AM 48.9302 0.5479 98° East 502 578 37,000  Level FlightAware ADS-B
Tue 06:40:28 AM 48.9156 0.6990 98° East 503 579 37,000  Level FlightAware ADS-B
Tue 06:41:01 AM 48.9091 0.7626 99° East 507 583 37,000  Level FlightAware ADS-B
Tue 06:41:37 AM 48.8901 0.9363 100° East 508 585 37,000  Level FlightAware ADS-B
Tue 06:42:07 AM 48.8795 1.0311 100° East 508 585 37,000  Level FlightAware ADS-B
Tue 06:42:37 AM 48.8671 1.1425 100° East 507 583 37,000  Level FlightAware ADS-B
Tue 06:43:15 AM 48.8512 1.2828 100° East 506 582 37,000  Level FlightAware ADS-B
Tue 06:43:56 AM 48.8567 1.2340 100° East 505 581 37,000  Level FlightAware ADS-B
Tue 06:44:30 AM 48.8402 1.3775 100° East 503 579 37,000  Level FlightAware ADS-B
Tue 06:45:09 AM 48.8037 1.6850 100° East 502 578 37,000  Level FlightAware UK
Tue 06:45:39 AM 48.7914 1.7886 100° East 502 578 37,000  Level FlightAware UK
Tue 06:46:09 AM 48.7793 1.8932 100° East 504 580 37,000  Level FlightAware UK
Tue 06:46:39 AM 48.7676 1.9975 100° East 504 580 37,000  Level FlightAware UK
Tue 06:47:09 AM 48.7558 2.1018 100° East 504 580 37,000  Level FlightAware UK
Tue 06:47:39 AM 48.7439 2.2059 100° East 502 578 37,000  Level FlightAware UK
Tue 06:48:17 AM 48.7295 2.3316 100° East 503 579 37,000  Level FlightAware ADS-B
Tue 06:49:29 AM 48.7150 2.4566 99° East 501 577 37,000  Level FlightAware ADS-B
Tue 06:52:32 AM 48.6251 3.1924 102° East 500 575 37,000 98 Level FlightAware ADS-B
Tue 07:09:50 AM 48.1757 6.7197 112° Southeast 496 571 39,000 112 Climbing FlightAware ADS-B (CYCD)
Tue 07:10:00 AM 48.0208 6.6960 106° East  Level FlightAware Approximate
Tue 07:10:24 AM 48.1461 6.8274 112° Southeast 497 572 39,000  Level FlightAware ADS-B (CYCD)
Tue 07:11:24 AM 48.0976 7.0037 112° Southeast 501 577 39,000  Level FlightAware ADS-B (CYCD)
Tue 07:11:55 AM 48.0677 7.1117 113° Southeast 503 579 39,000  Level FlightAware ADS-B (CYCD)
Tue 07:12:27 AM 48.0373 7.2212 113° Southeast 503 579 39,000  Level FlightAware ADS-B (CYCD)
Tue 07:13:35 AM 47.9720 7.4343 115° Southeast 503 579 39,000  Level FlightAware ADS-B (CYCD)
Tue 07:14:09 AM 47.9390 7.5413 115° Southeast 503 579 39,000  Level FlightAware ADS-B (CYCD)
Tue 07:15:28 AM 47.8636 7.7857 115° Southeast 495 570 39,000  Level FlightAware ADS-B (CYCD)
Tue 07:15:59 AM 47.8336 7.8823 115° Southeast 494 568 39,000  Level FlightAware ADS-B (CYCD)
Tue 07:16:29 AM 47.8113 7.9541 115° Southeast 492 566 39,000  Level FlightAware ADS-B (CYCD)
Tue 07:16:59 AM 47.7750 8.0704 115° Southeast 493 567 39,000  Level FlightAware ADS-B (CYCD)
Tue 07:17:30 AM 47.7468 8.1602 115° Southeast 492 566 39,000  Level FlightAware ADS-B (CYCD)
Tue 07:17:59 AM 47.7328 8.2165 102° East 495 570 39,000  Level FlightAware ADS-B (CYCD)
Tue 07:18:30 AM 47.7176 8.3154 103° East 494 568 39,000  Level FlightAware ADS-B (CYCD)
Tue 07:19:29 AM 47.6836 8.5355 104° East 494 568 39,000  Level FlightAware ADS-B (MUC / EDDM)
Tue 07:20:02 AM 47.6632 8.6607 104° East 493 567 39,000  Level FlightAware ADS-B (CYCD)
Tue 07:20:52 AM 47.6364 8.8246 104° East 491 565 39,000  Level FlightAware ADS-B (CYCD)
Tue 07:21:23 AM 47.6353 8.8312 104° East 490 564 39,000  Level FlightAware ADS-B (CYCD)
Tue 07:22:03 AM 47.5996 9.0483 104° East 489 563 39,000  Level FlightAware ADS-B (CYCD)
Tue 07:22:33 AM 47.5853 9.1341 104° East 491 565 39,000  Level FlightAware ADS-B (ETSE)
Tue 07:23:32 AM 47.5503 9.3432 104° East 492 566 39,000  Level FlightAware ADS-B (ETSE)
Tue 07:24:36 AM 47.5162 9.5449 104° East 489 563 39,000  Level FlightAware ADS-B (ETSE)
Tue 07:25:08 AM 47.4978 9.6526 104° East 488 562 39,000  Level FlightAware ADS-B (ETSE)
Tue 07:25:38 AM 47.4931 9.6797 104° East 487 560 39,000  Level FlightAware ADS-B (MUC / EDDM)
Tue 07:26:09 AM 47.4630 9.8534 104° East 487 560 39,000  Level FlightAware ADS-B (ETSE)
Tue 07:26:40 AM 47.4466 9.9478 105° East 488 562 39,000  Level FlightAware ADS-B (ETSE)
Tue 07:27:15 AM 47.4274 10.0573 105° East 490 564 39,000  Level FlightAware ADS-B (MUC / EDDM)
Tue 07:27:46 AM 47.4093 10.1601 105° East 492 566 39,000  Level FlightAware ADS-B (MUC / EDDM)
Tue 07:28:24 AM 47.3820 10.3148 105° East 495 570 39,000  Level FlightAware ADS-B
Tue 07:29:05 AM 47.3649 10.4100 105° East 497 572 39,000  Level FlightAware ADS-B (ETSE)
Tue 07:29:39 AM 47.3432 10.5308 105° East 498 573 39,000  Level FlightAware ADS-B (MUC / EDDM)
Tue 07:30:09 AM 47.3256 10.6282 105° East 498 573 39,000  Level FlightAware ADS-B (MUC / EDDM)
Tue 07:30:39 AM 47.3079 10.7257 105° East 498 573 39,000  Level FlightAware ADS-B (MUC / EDDM)
Tue 07:31:21 AM 47.2839 10.8573 105° East 496 571 39,000  Level FlightAware ADS-B (MUC / EDDM)
Tue 07:31:54 AM 47.2651 10.9591 105° East 493 567 39,000  Level FlightAware ADS-B (MUC / EDDM)
Tue 07:32:25 AM 47.2445 11.0707 105° East 492 566 39,000  Level FlightAware ADS-B (MUC / EDDM)
Tue 07:33:04 AM 47.2245 11.1775 105° East 492 566 39,000  Level FlightAware ADS-B (ETSE)
Tue 07:33:44 AM 47.1969 11.3255 105° East 490 564 39,000  Level FlightAware ADS-B (ETSE)
Tue 07:34:14 AM 47.1789 11.4207 106° East 489 563 39,000  Level FlightAware ADS-B (ETSE)
Tue 07:34:46 AM 47.1621 11.5092 106° East 487 560 39,000  Level FlightAware ADS-B (ETSE)
Tue 07:35:18 AM 47.1427 11.6108 106° East 486 559 39,000  Level FlightAware ADS-B (ETSE)
Tue 07:35:54 AM 47.1178 11.7335 110° East 484 557 39,000  Level FlightAware ADS-B (MUC / EDDM)
Tue 07:36:38 AM 47.0776 11.8654 116° Southeast 480 552 39,000  Level FlightAware ADS-B (MUC / EDDM)
Tue 07:37:18 AM 47.0402 11.9805 115° Southeast 482 555 39,000  Level FlightAware ADS-B (MUC / EDDM)
Tue 07:37:54 AM 47.0078 12.0791 116° Southeast 483 556 39,000  Level FlightAware ADS-B (ETSE)
Tue 07:38:25 AM 46.9733 12.1827 116° Southeast 483 556 39,000  Level FlightAware ADS-B (MUC / EDDM)
Tue 07:39:01 AM 46.9378 12.2887 116° Southeast 484 557 39,000  Level FlightAware ADS-B (MUC / EDDM)
Tue 07:39:32 AM 46.9093 12.3734 116° Southeast 483 556 39,000  Level FlightAware ADS-B (MUC / EDDM)
Tue 07:40:04 AM 46.8764 12.4707 116° Southeast 482 555 39,000  Level FlightAware ADS-B (MUC / EDDM)
Tue 07:40:41 AM 46.8403 12.5771 116° Southeast 482 555 39,000  Level FlightAware ADS-B (MUC / EDDM)
Tue 07:41:26 AM 46.8216 12.6324 117° Southeast 483 556 39,000  Level FlightAware ADS-B (ETSE)
Tue 07:42:12 AM 46.7509 12.8392 117° Southeast 483 556 39,000  Level FlightAware ADS-B (MUC / EDDM)
Tue 07:42:54 AM 46.7084 12.9625 117° Southeast 484 557 39,000  Level FlightAware ADS-B (MUC / EDDM)
Tue 07:43:30 AM 46.6715 13.0695 117° Southeast 486 559 39,000  Level FlightAware ADS-B (ETSE)
Tue 07:44:00 AM 46.6418 13.1551 117° Southeast 486 559 39,000  Level FlightAware ADS-B (ETSE)
Tue 07:44:48 AM 46.5924 13.2969 117° Southeast 485 558 39,000  Level FlightAware ADS-B (MUC / EDDM)
Tue 07:45:23 AM 46.5632 13.3848 113° Southeast 488 562 39,000  Level FlightAware ADS-B (MUC / EDDM)
Tue 07:45:40 AM 46.5455 13.4513 110° East 489 563 39,000  Level FlightAware ADS-B (ETSE)
Tue 07:46:10 AM 46.5228 13.5461 109° East 490 564 39,000  Level FlightAware ADS-B (MUC / EDDM)
Tue 07:46:44 AM 46.4979 13.6497 109° East 492 566 39,000  Level FlightAware ADS-B (ETSE)
Tue 07:47:36 AM 46.4616 13.7979 110° East 493 567 39,000  Level FlightAware ADS-B (MUC / EDDM)
Tue 07:48:06 AM 46.4356 13.9033 110° East 493 567 39,000  Level FlightAware ADS-B (MUC / EDDM)
Tue 07:48:41 AM 46.4099 14.0066 110° East 492 566 39,000  Level FlightAware ADS-B (MUC / EDDM)
Tue 07:49:11 AM 46.3854 14.1050 110° East 492 566 39,000  Level FlightAware ADS-B (MUC / EDDM)
Tue 07:49:51 AM 46.3543 14.2294 110° East 494 568 39,000  Level FlightAware ADS-B (MUC / EDDM)
Tue 07:50:21 AM 46.3316 14.3197 110° East 493 567 39,000  Level FlightAware ADS-B (MUC / EDDM)
Tue 07:50:54 AM 46.3056 14.4227 110° East 493 567 39,000  Level FlightAware ADS-B (MUC / EDDM)
Tue 07:51:34 AM 46.2745 14.5453 110° East 492 566 39,000  Level FlightAware ADS-B (MUC / EDDM)
Tue 07:52:04 AM 46.2504 14.6398 110° East 491 565 39,000  Level FlightAware ADS-B (MUC / EDDM)
Tue 07:52:51 AM 46.2173 14.7692 110° East 490 564 39,000  Level FlightAware ADS-B (MUC / EDDM)
Tue 07:53:36 AM 46.1784 14.9201 110° East 490 564 39,000  Level FlightAware ADS-B (MUC / EDDM)
Tue 07:54:08 AM 46.1549 15.0110 111° Southeast 490 564 39,000  Level FlightAware ADS-B (MUC / EDDM)
Tue 07:54:47 AM 46.1243 15.1286 111° Southeast 489 563 39,000  Level FlightAware ADS-B (MUC / EDDM)
Tue 07:55:17 AM 46.0979 15.2296 111° Southeast 488 562 39,000  Level FlightAware ADS-B (MUC / EDDM)
Tue 07:55:50 AM 46.0713 15.3306 111° Southeast 486 559 39,000  Level FlightAware ADS-B (MUC / EDDM)
Tue 08:55:49 AM 42.5479 25.0868 121° Southeast 474 545 39,000  Level FlightAware ADS-B (CPH / EKCH)
Tue 08:58:00 AM 42.4053 25.4460 118° Southeast  Level Estimated
Tue 08:59:00 AM 42.3396 25.6099 118° Southeast  Level Estimated
Tue 09:00:00 AM 42.2737 25.7735 119° Southeast  Level Estimated
Tue 09:01:00 AM 42.2076 25.9368 119° Southeast  Level Estimated
Tue 09:02:00 AM 42.1412 26.0997 119° Southeast  Level Estimated
Tue 09:03:00 AM 42.0746 26.2623 120° Southeast  Level Estimated
Tue 09:04:00 AM 42.0078 26.4245 124° Southeast  Level Estimated
Tue 09:05:00 AM 41.9489 26.5921 115° Southeast  Level FlightAware Approximate
Tue 09:06:00 AM 41.8810 26.7532 120° Southeast  Level Estimated
Tue 09:07:00 AM 41.8130 26.9140 119° Southeast  Level Estimated
Tue 09:08:00 AM 41.7466 27.0759 119° Southeast  Level FlightAware Approximate
Tue 09:09:00 AM 41.6800 27.2374 119° Southeast  Level FlightAware Approximate
Tue 09:10:00 AM 41.6108 27.3969 121° Southeast  Level Estimated
Tue 09:11:00 AM 41.5398 27.5548 121° Southeast  Level FlightAware Approximate
Tue 09:12:00 AM 41.4687 27.7123 121° Southeast  Level FlightAware Approximate
Tue 09:13:00 AM 41.3993 27.8711 121° Southeast  Level Estimated
Tue 09:14:00 AM 41.3298 28.0296 122° Southeast  Level Estimated
Tue 09:15:00 AM 41.2555 28.1840 123° Southeast  Level FlightAware Approximate
Tue 09:16:00 AM 41.1867 28.3427 121° Southeast  Level Estimated
Tue 09:17:00 AM 41.1176 28.5010 124° Southeast  Level Estimated
Tue 09:18:00 AM 41.0483 28.6590 128° Southeast  Level Estimated
Tue 09:19:00 AM 40.9823 28.7740 128° Southeast  Level FlightAware Approximate
Tue 09:20:00 AM 40.9667 28.8000 128° Southeast  Level FlightAware Approximate
Tue 09:21:00 AM 40.9769 28.8211 128° Southeast  Level Estimated
Tue 09:22:00 AM 40.9769 28.8211 128° Southeast  Level Estimated
Tue 09:23:00 AM 40.9769 28.8211 128° Southeast  Level Estimated
Tue 09:24:00 AM 40.9769 28.8211 128° Southeast  Level Estimated
Tue 09:25:00 AM 40.9769 28.8211 128° Southeast  Level Estimated
Tue 09:26:00 AM 40.9769 28.8211 128° Southeast  Level Estimated
Tue 09:27:00 AM 40.9769 28.8211 128° Southeast  Level Estimated
Tue 09:28:00 AM 40.9769 28.8211 128° Southeast  Level Estimated
Tue 09:29:00 AM 40.9769 28.8211 128° Southeast  Level Estimated
Tue 09:30:00 AM 40.9769 28.8211 128° Southeast  Level Estimated
Tue 09:31:00 AM 40.9769 28.8211 128° Southeast  Level Estimated
Tue 09:32:00 AM 40.9769 28.8211 128° Southeast  Level Estimated
Tue 09:33:00 AM 40.9769 28.8211 128° Southeast  Level Estimated
Tue 09:34:00 AM 40.9769 28.8211 128° Southeast  Level Estimated
Tue 09:35:00 AM 40.9769 28.8211 128° Southeast  Level Estimated
Tue 09:36:00 AM 40.9769 28.8211 128° Southeast  Level Estimated

Login

Don't have an account? Register now (free) for customized features, flight alerts, and more!